Time;durP1;ratioP1;P1;durP2;ratioP2;P2;SDS_P1;SDS_P2;PMS_P1;PMS_P2;Temp;Humidity;BMP_temperature;BMP_pressure;BME280_temperature;BME280_humidity;BME280_pressure;Samples;Min_cycle;Max_cycle;Signal;HPM_P1;HPM_P2
2023/09/28 00:00:38;;;;;;;2.58;2.40;;;;;;;;;;5053086;28;20510;-64
2023/09/28 00:03:05;;;;;;;2.45;2.25;;;;;;;;;;5052500;28;20098;-64
2023/09/28 00:05:31;;;;;;;1.88;1.77;;;;;;;;;;5056400;28;20033;-64
2023/09/28 00:08:00;;;;;;;2.65;2.45;;;;;;;;;;5051275;28;20075;-64
2023/09/28 00:10:26;;;;;;;1.85;1.75;;;;;;;;;;5052311;28;20602;-64
2023/09/28 00:12:53;;;;;;;2.67;2.47;;;;;;;;;;5045328;28;20052;-64
2023/09/28 00:15:20;;;;;;;2.53;2.33;;;;;;;;;;5055698;28;20043;-64
2023/09/28 00:17:51;;;;;;;3.40;2.20;;;;;;;;;;5046993;28;20080;-64
2023/09/28 00:20:23;;;;;;;2.70;2.50;;;;;;;;;;5047220;28;20072;-64
2023/09/28 00:22:51;;;;;;;2.88;2.67;;;;;;;;;;5047482;28;20041;-64
2023/09/28 00:25:19;;;;;;;2.05;1.95;;;;;;;;;;5047806;28;20052;-64
2023/09/28 00:27:47;;;;;;;2.22;2.03;;;;;;;;;;5047269;28;20067;-64
2023/09/28 00:30:18;;;;;;;1.67;1.58;;;;;;;;;;5047726;28;20045;-64
2023/09/28 00:32:44;;;;;;;1.90;1.80;;;;;;;;;;5039841;28;20593;-64
2023/09/28 00:35:10;;;;;;;2.85;2.65;;;;;;;;;;5046552;28;20489;-64
2023/09/28 00:37:36;;;;;;;2.53;2.33;;;;;;;;;;5047167;28;20571;-64
2023/09/28 00:40:27;;;;;;;2.38;2.17;;;;;;;;;;5047207;28;20098;-64
2023/09/28 00:42:54;;;;;;;2.60;2.40;;;;;;;;;;5039434;28;20049;-64
2023/09/28 00:45:24;;;;;;;3.03;2.83;;;;;;;;;;5047239;28;20494;-64
2023/09/28 00:48:00;;;;;;;3.80;3.50;;;;;;;;;;5051433;28;20032;-64
2023/09/28 00:50:26;;;;;;;3.63;3.33;;;;;;;;;;5058398;28;20045;-64
2023/09/28 00:52:58;;;;;;;2.92;2.72;;;;;;;;;;5045624;28;20544;-64
2023/09/28 00:55:25;;;;;;;3.13;2.83;;;;;;;;;;5046502;28;20053;-64
2023/09/28 00:57:51;;;;;;;2.60;2.40;;;;;;;;;;5046872;28;20035;-64
2023/09/28 01:00:18;;;;;;;2.50;2.30;;;;;;;;;;5047012;28;20080;-64
2023/09/28 01:02:51;;;;;;;2.35;2.25;;;;;;;;;;5046538;28;20179;-64
2023/09/28 01:05:18;;;;;;;2.00;1.90;;;;;;;;;;5039456;28;20045;-64
2023/09/28 01:07:44;;;;;;;2.03;1.92;;;;;;;;;;5046963;28;20501;-64
2023/09/28 01:10:13;;;;;;;2.08;1.95;;;;;;;;;;5045958;28;20657;-64
2023/09/28 01:12:40;;;;;;;2.30;2.17;;;;;;;;;;5046889;28;20048;-64
2023/09/28 01:15:11;;;;;;;2.33;2.13;;;;;;;;;;5046517;28;20098;-64
2023/09/28 01:17:37;;;;;;;1.98;1.88;;;;;;;;;;5046133;28;20048;-64
2023/09/28 01:20:17;;;;;;;2.25;1.98;;;;;;;;;;5046475;28;20485;-64
2023/09/28 01:22:43;;;;;;;3.35;3.03;;;;;;;;;;5039724;28;20055;-64
2023/09/28 01:25:09;;;;;;;2.70;2.50;;;;;;;;;;5050025;28;20122;-64
2023/09/28 01:27:36;;;;;;;4.57;3.33;;;;;;;;;;5046363;28;20037;-64
2023/09/28 01:30:03;;;;;;;3.67;2.70;;;;;;;;;;5045538;28;20041;-64
2023/09/28 01:32:29;;;;;;;4.10;2.80;;;;;;;;;;5046305;28;20127;-64
2023/09/28 01:34:55;;;;;;;2.30;2.10;;;;;;;;;;5045990;28;20057;-64
2023/09/28 01:37:24;;;;;;;2.50;2.30;;;;;;;;;;5045784;28;20052;-64
2023/09/28 01:39:52;;;;;;;1.98;1.88;;;;;;;;;;5046173;28;20106;-64
2023/09/28 01:42:18;;;;;;;2.30;2.10;;;;;;;;;;5046371;28;20110;-64
2023/09/28 01:44:44;;;;;;;1.55;1.45;;;;;;;;;;5045124;28;20477;-64
2023/09/28 01:47:10;;;;;;;1.75;1.50;;;;;;;;;;5056832;28;20493;-64
2023/09/28 01:49:36;;;;;;;2.50;2.30;;;;;;;;;;5048721;28;20485;-64
2023/09/28 01:52:02;;;;;;;3.80;2.30;;;;;;;;;;5045168;28;20045;-64
2023/09/28 01:54:28;;;;;;;2.35;1.90;;;;;;;;;;5045689;28;20600;-64
2023/09/28 01:56:54;;;;;;;3.08;2.80;;;;;;;;;;5045785;28;20522;-64
2023/09/28 01:59:20;;;;;;;2.60;2.40;;;;;;;;;;5047999;28;20044;-64
2023/09/28 02:01:46;;;;;;;2.35;2.17;;;;;;;;;;5048969;28;20065;-64
2023/09/28 02:04:12;;;;;;;2.15;1.92;;;;;;;;;;5045934;28;20041;-64
2023/09/28 02:06:38;;;;;;;2.30;2.13;;;;;;;;;;5045247;28;20565;-64
2023/09/28 02:09:05;;;;;;;1.92;1.80;;;;;;;;;;5045921;28;20041;-64
2023/09/28 02:11:31;;;;;;;1.85;1.75;;;;;;;;;;5045918;28;20444;-64
2023/09/28 02:13:57;;;;;;;1.85;1.75;;;;;;;;;;5044913;28;20147;-64
2023/09/28 02:16:23;;;;;;;1.98;1.88;;;;;;;;;;5055237;28;20044;-64
2023/09/28 02:18:50;;;;;;;2.28;2.13;;;;;;;;;;5057069;28;20079;-64
2023/09/28 02:21:16;;;;;;;2.00;1.88;;;;;;;;;;5045657;28;20049;-64
2023/09/28 02:23:42;;;;;;;2.00;1.75;;;;;;;;;;5045020;28;20045;-64
2023/09/28 02:26:08;;;;;;;2.10;1.90;;;;;;;;;;5044746;28;20544;-64
2023/09/28 02:28:34;;;;;;;2.60;2.40;;;;;;;;;;5045400;28;20044;-64
2023/09/28 02:31:09;;;;;;;2.55;1.88;;;;;;;;;;5045415;28;20041;-64
2023/09/28 02:33:35;;;;;;;2.78;2.33;;;;;;;;;;5044586;28;20440;-64
2023/09/28 02:36:01;;;;;;;1.70;1.60;;;;;;;;;;5045130;28;20087;-64
2023/09/28 02:38:28;;;;;;;1.50;1.40;;;;;;;;;;5045751;28;20116;-64
2023/09/28 02:40:54;;;;;;;2.25;2.05;;;;;;;;;;5054465;28;20406;-64
2023/09/28 02:43:20;;;;;;;2.42;2.20;;;;;;;;;;5045490;28;20037;-64
2023/09/28 02:45:47;;;;;;;2.42;2.22;;;;;;;;;;5045396;28;20045;-64
2023/09/28 02:48:13;;;;;;;2.53;2.33;;;;;;;;;;5044765;28;20108;-64
2023/09/28 02:50:39;;;;;;;1.35;1.25;;;;;;;;;;5045096;28;20041;-64
2023/09/28 02:53:05;;;;;;;1.73;1.63;;;;;;;;;;5045335;28;20098;-64
2023/09/28 02:55:32;;;;;;;1.98;1.83;;;;;;;;;;5048063;28;20045;-64
2023/09/28 02:57:58;;;;;;;1.73;1.63;;;;;;;;;;5048089;28;20060;-64
2023/09/28 03:00:27;;;;;;;1.67;1.58;;;;;;;;;;5049479;28;20045;-64
2023/09/28 03:02:56;;;;;;;1.85;1.75;;;;;;;;;;5048579;28;20106;-64
2023/09/28 03:05:23;;;;;;;1.98;1.80;;;;;;;;;;5049101;28;20040;-64
2023/09/28 03:07:49;;;;;;;1.90;1.80;;;;;;;;;;5049301;28;20042;-64
2023/09/28 03:10:16;;;;;;;1.80;1.40;;;;;;;;;;5047003;28;20058;-64
2023/09/28 03:12:45;;;;;;;1.50;1.40;;;;;;;;;;5048574;28;20387;-64
2023/09/28 03:15:11;;;;;;;2.67;1.67;;;;;;;;;;5060545;28;20535;-64
2023/09/28 03:17:39;;;;;;;1.45;1.35;;;;;;;;;;5047816;28;20421;-64
2023/09/28 03:20:15;;;;;;;1.80;1.70;;;;;;;;;;5048723;28;20056;-64
2023/09/28 03:22:42;;;;;;;1.70;1.60;;;;;;;;;;5048254;28;20051;-64
2023/09/28 03:25:11;;;;;;;1.33;1.20;;;;;;;;;;5048609;28;20080;-63
2023/09/28 03:27:37;;;;;;;1.60;1.50;;;;;;;;;;5040443;28;20060;-64
2023/09/28 03:30:09;;;;;;;1.23;1.13;;;;;;;;;;5047853;28;20045;-64
2023/09/28 03:32:35;;;;;;;;;;;;;;;;;;5048759;28;20110;-64
2023/09/28 03:35:02;;;;;;;1.30;1.20;;;;;;;;;;5048325;28;20361;-64
2023/09/28 03:37:28;;;;;;;1.00;0.90;;;;;;;;;;5047812;28;20053;-64
2023/09/28 03:39:56;;;;;;;1.10;1.00;;;;;;;;;;5048897;28;20112;-64
2023/09/28 03:42:22;;;;;;;0.90;0.90;;;;;;;;;;5048965;28;20057;-64
2023/09/28 03:44:48;;;;;;;1.80;1.65;;;;;;;;;;5047936;28;20057;-64
2023/09/28 03:47:14;;;;;;;1.83;1.73;;;;;;;;;;5048583;28;20048;-64
2023/09/28 03:49:40;;;;;;;2.22;1.77;;;;;;;;;;5048591;28;20041;-64
2023/09/28 03:52:06;;;;;;;1.35;1.25;;;;;;;;;;5047491;28;20489;-64
2023/09/28 03:54:33;;;;;;;1.58;1.48;;;;;;;;;;5056338;28;20044;-64
2023/09/28 03:56:59;;;;;;;1.25;1.15;;;;;;;;;;5053576;28;20057;-64
2023/09/28 03:59:25;;;;;;;1.75;1.65;;;;;;;;;;5048273;28;20048;-64
2023/09/28 04:01:51;;;;;;;2.20;1.73;;;;;;;;;;5056947;28;20056;-64
2023/09/28 04:04:18;;;;;;;2.00;1.63;;;;;;;;;;5047452;28;20554;-64
2023/09/28 04:06:44;;;;;;;1.60;1.50;;;;;;;;;;5046234;28;20175;-64
2023/09/28 04:09:11;;;;;;;1.60;1.50;;;;;;;;;;5047553;28;20083;-64
2023/09/28 04:11:37;;;;;;;1.75;1.63;;;;;;;;;;5047109;28;20041;-64
2023/09/28 04:14:07;;;;;;;1.67;1.30;;;;;;;;;;5047455;28;20045;-64
2023/09/28 04:16:33;;;;;;;2.38;1.50;;;;;;;;;;5047692;28;20119;-64
2023/09/28 04:18:59;;;;;;;2.85;1.63;;;;;;;;;;5047136;28;20175;-64
2023/09/28 04:21:25;;;;;;;1.50;1.40;;;;;;;;;;5047431;28;20068;-64
2023/09/28 04:23:51;;;;;;;1.33;1.23;;;;;;;;;;5047618;28;20045;-64
2023/09/28 04:26:17;;;;;;;1.10;0.98;;;;;;;;;;5047053;28;20386;-64
2023/09/28 04:28:43;;;;;;;1.30;1.20;;;;;;;;;;5047516;28;20577;-64
2023/09/28 04:31:09;;;;;;;1.10;1.00;;;;;;;;;;5047574;28;20421;-64
2023/09/28 04:33:36;;;;;;;1.15;0.90;;;;;;;;;;5046272;28;22257;-64
2023/09/28 04:36:02;;;;;;;0.95;0.93;;;;;;;;;;5065048;28;20115;-64
2023/09/28 04:38:29;;;;;;;0.95;0.95;;;;;;;;;;5049700;28;20080;-64
2023/09/28 04:40:55;;;;;;;1.75;1.30;;;;;;;;;;5046745;28;20048;-64
2023/09/28 04:43:21;;;;;;;1.60;1.50;;;;;;;;;;5047266;28;20041;-64
2023/09/28 04:45:47;;;;;;;1.30;1.20;;;;;;;;;;5047546;28;20037;-64
2023/09/28 04:48:13;;;;;;;2.30;2.10;;;;;;;;;;5046608;28;20415;-64
2023/09/28 04:50:39;;;;;;;2.42;2.17;;;;;;;;;;5046958;28;20463;-64
2023/09/28 04:53:05;;;;;;;3.42;2.88;;;;;;;;;;5046614;28;20509;-64
2023/09/28 04:55:31;;;;;;;3.22;2.92;;;;;;;;;;5046158;28;20056;-64
2023/09/28 04:57:57;;;;;;;2.67;2.35;;;;;;;;;;5046781;28;20045;-64
2023/09/28 05:00:23;;;;;;;3.90;2.53;;;;;;;;;;5047148;28;20044;-64
2023/09/28 05:02:49;;;;;;;2.80;2.40;;;;;;;;;;5046369;28;20519;-64
2023/09/28 05:05:15;;;;;;;3.10;2.80;;;;;;;;;;5046364;28;20068;-64
2023/09/28 05:07:42;;;;;;;2.80;2.60;;;;;;;;;;5045590;28;20041;-64
2023/09/28 05:10:08;;;;;;;3.13;2.83;;;;;;;;;;5046470;28;20083;-64
2023/09/28 05:12:34;;;;;;;2.80;2.60;;;;;;;;;;5045884;28;20049;-64
2023/09/28 05:15:01;;;;;;;3.08;2.60;;;;;;;;;;5046085;28;20091;-64
2023/09/28 05:17:28;;;;;;;2.78;2.47;;;;;;;;;;5045669;28;20787;-64
2023/09/28 05:19:54;;;;;;;2.22;2.00;;;;;;;;;;5047507;28;20116;-64
2023/09/28 05:22:20;;;;;;;2.22;2.00;;;;;;;;;;5046951;28;20060;-64
2023/09/28 05:24:46;;;;;;;2.10;1.90;;;;;;;;;;5048344;28;20194;-64
2023/09/28 05:27:13;;;;;;;2.22;2.00;;;;;;;;;;5046826;28;20567;-64
2023/09/28 05:29:39;;;;;;;2.70;2.50;;;;;;;;;;5046346;28;20043;-64
2023/09/28 05:32:08;;;;;;;2.90;2.20;;;;;;;;;;5045408;28;20380;-64
2023/09/28 05:34:35;;;;;;;3.08;2.42;;;;;;;;;;5046365;28;20081;-64
2023/09/28 05:37:01;;;;;;;2.90;2.38;;;;;;;;;;5045426;28;20045;-64
2023/09/28 05:39:27;;;;;;;3.35;2.60;;;;;;;;;;5045854;28;20052;-64
2023/09/28 05:41:53;;;;;;;5.00;2.65;;;;;;;;;;5046317;28;20045;-64
2023/09/28 05:44:19;;;;;;;3.00;2.00;;;;;;;;;;5045547;28;20087;-64
2023/09/28 05:46:46;;;;;;;2.53;2.13;;;;;;;;;;5043854;28;20059;-64
2023/09/28 05:49:13;;;;;;;2.72;2.13;;;;;;;;;;5047312;28;20476;-64
2023/09/28 05:51:39;;;;;;;4.15;2.30;;;;;;;;;;5046058;28;20043;-64
2023/09/28 05:54:05;;;;;;;3.05;1.92;;;;;;;;;;5049012;28;20045;-64
2023/09/28 05:56:31;;;;;;;3.58;2.05;;;;;;;;;;5046994;28;20484;-64
2023/09/28 05:58:57;;;;;;;2.50;2.13;;;;;;;;;;5047886;28;20052;-64
2023/09/28 06:01:23;;;;;;;2.95;2.30;;;;;;;;;;5047757;28;20094;-64
2023/09/28 06:03:49;;;;;;;3.78;2.10;;;;;;;;;;5056303;28;20044;-64
2023/09/28 06:06:16;;;;;;;4.03;2.03;;;;;;;;;;5048432;28;20043;-64
2023/09/28 06:08:43;;;;;;;4.28;2.50;;;;;;;;;;5051074;28;20044;-64
2023/09/28 06:11:12;;;;;;;3.53;2.17;;;;;;;;;;5044305;28;20106;-64
2023/09/28 06:13:40;;;;;;;2.28;1.65;;;;;;;;;;5046783;28;20095;-64
2023/09/28 06:16:06;;;;;;;4.45;1.90;;;;;;;;;;5046444;28;20040;-64
2023/09/28 06:18:32;;;;;;;4.00;1.58;;;;;;;;;;5045864;28;20441;-64
2023/09/28 06:21:00;;;;;;;3.13;1.65;;;;;;;;;;5045042;28;20128;-64
2023/09/28 06:23:26;;;;;;;4.25;1.95;;;;;;;;;;5047090;28;20075;-64
2023/09/28 06:25:52;;;;;;;6.80;2.08;;;;;;;;;;5048244;28;20476;-64
2023/09/28 06:28:19;;;;;;;3.17;2.10;;;;;;;;;;5051416;28;20053;-64
2023/09/28 06:30:45;;;;;;;4.22;1.63;;;;;;;;;;5044640;28;20049;-64
2023/09/28 06:33:11;;;;;;;3.75;1.67;;;;;;;;;;5044196;28;20041;-64
2023/09/28 06:35:37;;;;;;;3.30;1.55;;;;;;;;;;5047256;28;20043;-64
2023/09/28 06:38:03;;;;;;;2.72;1.38;;;;;;;;;;5045370;28;20056;-64
2023/09/28 06:40:29;;;;;;;3.33;1.08;;;;;;;;;;5044740;28;20081;-64
2023/09/28 06:42:55;;;;;;;3.45;0.95;;;;;;;;;;5045326;28;20132;-64
2023/09/28 06:45:21;;;;;;;7.00;1.73;;;;;;;;;;5045764;28;20120;-64
2023/09/28 06:47:47;;;;;;;5.53;1.60;;;;;;;;;;5044851;28;20516;-64
2023/09/28 06:50:14;;;;;;;3.63;1.00;;;;;;;;;;5045355;28;20064;-64
2023/09/28 06:52:40;;;;;;;4.70;1.15;;;;;;;;;;5045301;28;20048;-63
2023/09/28 06:55:07;;;;;;;5.53;1.88;;;;;;;;;;5044335;28;20092;-64
2023/09/28 06:57:33;;;;;;;8.48;2.78;;;;;;;;;;5044798;28;20044;-64
2023/09/28 07:00:01;;;;;;;10.20;3.00;;;;;;;;;;5044828;28;20104;-64
2023/09/28 07:02:27;;;;;;;8.35;2.78;;;;;;;;;;5043781;28;20892;-64
2023/09/28 07:04:53;;;;;;;12.32;3.00;;;;;;;;;;5051218;28;20053;-64
2023/09/28 07:07:19;;;;;;;10.85;2.83;;;;;;;;;;5045035;28;20029;-64
2023/09/28 07:09:45;;;;;;;7.88;2.83;;;;;;;;;;5045197;28;20068;-64
2023/09/28 07:12:11;;;;;;;6.68;2.00;;;;;;;;;;5045576;28;20538;-64
2023/09/28 07:14:37;;;;;;;10.45;2.35;;;;;;;;;;5050216;28;20064;-64
2023/09/28 07:17:04;;;;;;;10.90;3.13;;;;;;;;;;5044437;28;20452;-64
2023/09/28 07:19:30;;;;;;;10.07;2.50;;;;;;;;;;5044864;28;20033;-64
2023/09/28 07:21:56;;;;;;;6.20;2.20;;;;;;;;;;5044901;28;20827;-64
2023/09/28 07:24:22;;;;;;;5.57;1.80;;;;;;;;;;5049050;28;20043;-63
2023/09/28 07:26:49;;;;;;;6.00;2.03;;;;;;;;;;5048568;28;20033;-62
2023/09/28 07:29:15;;;;;;;6.72;2.35;;;;;;;;;;5048546;28;20060;-63
2023/09/28 07:31:41;;;;;;;8.50;2.75;;;;;;;;;;5045068;28;20048;-63
2023/09/28 07:34:07;;;;;;;11.93;3.45;;;;;;;;;;5044507;28;20041;-65
2023/09/28 07:36:33;;;;;;;7.28;2.60;;;;;;;;;;5050081;28;20115;-66
2023/09/28 07:38:59;;;;;;;7.97;2.17;;;;;;;;;;5047918;28;20511;-65
2023/09/28 07:41:25;;;;;;;6.55;2.05;;;;;;;;;;5054100;28;20045;-65
2023/09/28 07:43:51;;;;;;;14.60;3.22;;;;;;;;;;5042192;28;20412;-66
2023/09/28 07:46:17;;;;;;;7.65;2.70;;;;;;;;;;5048072;28;20103;-66
2023/09/28 07:48:43;;;;;;;5.75;2.10;;;;;;;;;;5053350;28;20496;-66
2023/09/28 07:51:09;;;;;;;8.68;2.67;;;;;;;;;;5049400;28;20052;-66
2023/09/28 07:53:36;;;;;;;7.18;2.40;;;;;;;;;;5053963;28;20052;-66
2023/09/28 07:56:01;;;;;;;6.00;2.40;;;;;;;;;;5048791;28;20493;-66
2023/09/28 07:58:28;;;;;;;3.72;2.20;;;;;;;;;;5047924;28;20113;-65
2023/09/28 08:00:54;;;;;;;5.72;2.08;;;;;;;;;;5048364;28;20090;-66
2023/09/28 08:03:20;;;;;;;9.55;2.95;;;;;;;;;;5056000;28;20055;-66
2023/09/28 08:05:46;;;;;;;7.32;2.30;;;;;;;;;;5051001;28;20715;-65
2023/09/28 08:08:12;;;;;;;6.95;2.22;;;;;;;;;;5052160;28;20140;-66
2023/09/28 08:10:38;;;;;;;6.80;2.65;;;;;;;;;;5046962;28;20476;-66
2023/09/28 08:13:04;;;;;;;6.30;2.10;;;;;;;;;;5046067;28;20041;-66
2023/09/28 08:15:30;;;;;;;6.57;2.60;;;;;;;;;;5046793;28;20094;-66
2023/09/28 08:17:57;;;;;;;10.15;2.88;;;;;;;;;;5050848;28;20045;-66
2023/09/28 08:20:26;;;;;;;7.53;2.70;;;;;;;;;;5053493;28;20041;-66
2023/09/28 08:22:52;;;;;;;3.75;1.67;;;;;;;;;;5052696;28;20127;-66
2023/09/28 08:25:18;;;;;;;7.38;2.40;;;;;;;;;;5049083;28;20083;-66
2023/09/28 08:27:44;;;;;;;8.73;2.60;;;;;;;;;;5047556;28;20212;-66
2023/09/28 08:30:11;;;;;;;9.38;2.63;;;;;;;;;;5056824;28;20037;-66
2023/09/28 08:32:37;;;;;;;4.13;2.10;;;;;;;;;;5045430;28;20382;-66
2023/09/28 08:35:03;;;;;;;5.82;1.85;;;;;;;;;;5046403;28;20463;-66
2023/09/28 08:37:29;;;;;;;8.63;2.78;;;;;;;;;;5045640;28;20037;-66
2023/09/28 08:39:57;;;;;;;6.93;2.60;;;;;;;;;;5059577;28;20047;-67
2023/09/28 08:42:25;;;;;;;5.38;2.20;;;;;;;;;;5057085;28;20102;-67
2023/09/28 08:44:57;;;;;;;7.72;2.55;;;;;;;;;;5047381;28;20040;-67
2023/09/28 08:47:23;;;;;;;;;;;;;;;;;;5050360;28;20080;-67
2023/09/28 08:49:50;;;;;;;15.88;3.25;;;;;;;;;;5049074;28;19924;-67
2023/09/28 08:52:17;;;;;;;9.35;2.70;;;;;;;;;;5048721;28;20635;-66
2023/09/28 08:54:44;;;;;;;9.90;2.75;;;;;;;;;;5030151;28;20483;-66
2023/09/28 08:57:11;;;;;;;9.32;3.00;;;;;;;;;;5046901;28;20044;-66
2023/09/28 08:59:38;;;;;;;9.02;2.92;;;;;;;;;;5049046;28;20041;-67
2023/09/28 09:02:04;;;;;;;7.93;2.50;;;;;;;;;;5054660;28;20040;-66
2023/09/28 09:04:37;;;;;;;11.65;2.80;;;;;;;;;;5046048;28;20041;-66
2023/09/28 09:07:04;;;;;;;7.82;2.13;;;;;;;;;;5044627;28;20041;-66
2023/09/28 09:09:32;;;;;;;7.38;2.55;;;;;;;;;;5044312;28;20045;-67
2023/09/28 09:11:58;;;;;;;7.07;2.58;;;;;;;;;;5044811;28;20045;-67
2023/09/28 09:14:28;;;;;;;11.25;3.40;;;;;;;;;;5045231;28;20053;-67
2023/09/28 09:16:54;;;;;;;6.07;2.47;;;;;;;;;;5056408;28;20062;-67
2023/09/28 09:19:21;;;;;;;9.32;2.70;;;;;;;;;;5051551;28;20041;-67
2023/09/28 09:21:47;;;;;;;7.90;2.50;;;;;;;;;;5049611;28;20031;-67
2023/09/28 09:24:14;;;;;;;8.68;2.63;;;;;;;;;;5051900;28;20045;-67
2023/09/28 09:26:44;;;;;;;10.35;2.90;;;;;;;;;;5056294;28;20097;-67
2023/09/28 09:29:11;;;;;;;5.60;2.22;;;;;;;;;;5049671;28;20049;-66
2023/09/28 09:31:41;;;;;;;4.90;1.70;;;;;;;;;;5053264;28;20420;-66
2023/09/28 09:34:17;;;;;;;5.22;1.98;;;;;;;;;;5048289;28;20511;-66
2023/09/28 09:36:43;;;;;;;9.85;2.92;;;;;;;;;;5050956;28;20044;-67
2023/09/28 09:39:20;;;;;;;4.60;1.80;;;;;;;;;;5048561;28;20048;-67
2023/09/28 09:41:46;;;;;;;9.02;2.95;;;;;;;;;;5046529;28;20459;-67
2023/09/28 09:44:23;;;;;;;7.90;2.70;;;;;;;;;;5044174;28;20045;-66
2023/09/28 09:46:53;;;;;;;4.93;2.05;;;;;;;;;;5046555;28;20056;-66
2023/09/28 09:49:19;;;;;;;6.90;2.42;;;;;;;;;;5043537;28;20128;-67
2023/09/28 09:51:48;;;;;;;9.57;2.35;;;;;;;;;;5051147;28;20398;-67
2023/09/28 09:54:16;;;;;;;6.50;2.00;;;;;;;;;;5047174;28;20378;-66
2023/09/28 09:56:46;;;;;;;6.10;2.20;;;;;;;;;;5047389;28;20424;-67
2023/09/28 09:59:16;;;;;;;7.38;2.38;;;;;;;;;;5041590;28;20059;-67
2023/09/28 10:01:47;;;;;;;6.68;2.90;;;;;;;;;;5045006;28;20400;-66
2023/09/28 10:04:16;;;;;;;9.88;2.50;;;;;;;;;;5043818;28;20655;-66
2023/09/28 10:06:44;;;;;;;11.75;2.65;;;;;;;;;;5045181;28;20049;-66
2023/09/28 10:09:11;;;;;;;7.57;2.45;;;;;;;;;;5049222;28;20045;-66
2023/09/28 10:11:40;;;;;;;7.72;2.13;;;;;;;;;;5043556;28;20047;-67
2023/09/28 10:14:08;;;;;;;6.57;2.28;;;;;;;;;;5041618;28;20049;-67
2023/09/28 10:16:34;;;;;;;5.13;2.20;;;;;;;;;;5044601;28;20525;-66
2023/09/28 10:19:01;;;;;;;7.22;2.22;;;;;;;;;;5047186;28;20051;-66
2023/09/28 10:21:27;;;;;;;7.07;2.38;;;;;;;;;;5045382;28;20037;-66
2023/09/28 10:23:55;;;;;;;8.27;2.22;;;;;;;;;;5044365;28;20053;-66
2023/09/28 10:26:22;;;;;;;4.45;1.73;;;;;;;;;;5044329;28;20040;-66
2023/09/28 10:29:08;;;;;;;7.43;2.55;;;;;;;;;;5043182;28;20041;-66
2023/09/28 10:31:36;;;;;;;6.88;2.15;;;;;;;;;;5048155;28;20047;-66
2023/09/28 10:34:03;;;;;;;8.18;2.38;;;;;;;;;;5047506;28;20036;-66
2023/09/28 10:36:30;;;;;;;5.82;1.90;;;;;;;;;;5048962;28;20102;-67
2023/09/28 10:39:17;;;;;;;7.45;2.55;;;;;;;;;;5045586;28;20106;-66
2023/09/28 10:41:46;;;;;;;6.88;2.30;;;;;;;;;;5043062;28;20044;-66
2023/09/28 10:44:16;;;;;;;5.78;2.08;;;;;;;;;;5042091;28;20515;-66
2023/09/28 10:46:42;;;;;;;7.95;2.13;;;;;;;;;;5044023;28;20043;-66
2023/09/28 10:49:08;;;;;;;10.23;2.92;;;;;;;;;;5051474;28;20095;-67
2023/09/28 10:51:34;;;;;;;7.65;2.60;;;;;;;;;;5042867;28;20044;-67
2023/09/28 10:54:04;;;;;;;7.13;2.22;;;;;;;;;;5051680;28;20179;-67
2023/09/28 10:56:31;;;;;;;9.00;3.05;;;;;;;;;;5050208;28;20053;-65
2023/09/28 10:58:58;;;;;;;5.05;2.10;;;;;;;;;;5045286;28;20409;-65
2023/09/28 11:01:24;;;;;;;5.55;1.92;;;;;;;;;;5051596;28;20628;-65
2023/09/28 11:03:52;;;;;;;5.35;2.17;;;;;;;;;;5046069;28;20505;-64
2023/09/28 11:06:18;;;;;;;2.45;1.80;;;;;;;;;;5046649;28;20056;-64
2023/09/28 11:08:44;;;;;;;4.40;1.55;;;;;;;;;;5049146;28;20041;-64
2023/09/28 11:11:10;;;;;;;3.35;1.48;;;;;;;;;;5044374;28;20616;-64
2023/09/28 11:13:36;;;;;;;4.55;1.75;;;;;;;;;;5048212;28;20681;-64
2023/09/28 11:16:02;;;;;;;3.60;2.28;;;;;;;;;;5055391;28;20045;-64
2023/09/28 11:18:28;;;;;;;6.80;1.85;;;;;;;;;;5049247;28;20033;-64
2023/09/28 11:20:56;;;;;;;5.20;1.90;;;;;;;;;;5049535;28;20044;-64
2023/09/28 11:23:22;;;;;;;3.28;1.25;;;;;;;;;;5049128;28;20459;-64
2023/09/28 11:25:48;;;;;;;3.28;1.45;;;;;;;;;;5053575;28;20040;-64
2023/09/28 11:28:15;;;;;;;4.18;1.60;;;;;;;;;;5050726;28;20540;-64
2023/09/28 11:30:42;;;;;;;6.63;1.80;;;;;;;;;;5057405;28;20091;-64
2023/09/28 11:33:07;;;;;;;2.17;1.23;;;;;;;;;;5061715;28;20044;-64
2023/09/28 11:35:34;;;;;;;2.88;1.20;;;;;;;;;;5051907;28;20059;-64
2023/09/28 11:38:03;;;;;;;3.10;1.08;;;;;;;;;;5054531;28;20041;-64
2023/09/28 11:40:30;;;;;;;4.50;1.40;;;;;;;;;;5056839;28;20041;-64
2023/09/28 11:43:00;;;;;;;3.80;1.50;;;;;;;;;;5045813;28;20047;-64
2023/09/28 11:45:29;;;;;;;6.72;1.77;;;;;;;;;;5047846;28;20040;-64
2023/09/28 11:47:55;;;;;;;8.48;2.80;;;;;;;;;;5049333;28;20736;-64
2023/09/28 11:50:23;;;;;;;7.43;2.25;;;;;;;;;;5050807;28;20048;-64
2023/09/28 11:52:50;;;;;;;6.18;2.35;;;;;;;;;;5048784;28;20119;-64
2023/09/28 11:55:16;;;;;;;6.78;2.38;;;;;;;;;;5048657;28;20499;-64
2023/09/28 11:57:45;;;;;;;6.00;2.38;;;;;;;;;;5050524;28;20106;-64
2023/09/28 12:00:18;;;;;;;8.48;2.70;;;;;;;;;;5049112;28;20052;-64
2023/09/28 12:02:44;;;;;;;4.97;1.95;;;;;;;;;;5048693;28;20493;-64
2023/09/28 12:05:10;;;;;;;7.57;2.05;;;;;;;;;;5049156;28;20033;-64
2023/09/28 12:07:37;;;;;;;7.07;2.45;;;;;;;;;;5051168;28;20049;-64
2023/09/28 12:10:05;;;;;;;4.53;1.98;;;;;;;;;;5046868;28;20049;-64
2023/09/28 12:12:31;;;;;;;3.08;1.33;;;;;;;;;;5059049;28;20073;-64
2023/09/28 12:14:57;;;;;;;7.88;2.40;;;;;;;;;;5048459;28;20037;-64
2023/09/28 12:17:24;;;;;;;13.63;3.20;;;;;;;;;;5062569;28;20039;-64
2023/09/28 12:19:50;;;;;;;9.07;2.70;;;;;;;;;;5050674;28;20654;-64
2023/09/28 12:22:16;;;;;;;7.93;2.50;;;;;;;;;;5051104;28;20139;-64
2023/09/28 12:24:42;;;;;;;8.02;3.15;;;;;;;;;;5051936;28;20075;-64
2023/09/28 12:27:09;;;;;;;6.53;2.25;;;;;;;;;;5049098;28;20077;-64
2023/09/28 12:29:35;;;;;;;9.55;3.40;;;;;;;;;;5047940;28;20499;-64
2023/09/28 12:32:02;;;;;;;12.30;3.10;;;;;;;;;;5047030;28;20041;-64
2023/09/28 12:34:29;;;;;;;5.35;2.25;;;;;;;;;;5048433;28;20166;-64
2023/09/28 12:36:57;;;;;;;8.65;2.75;;;;;;;;;;5048997;28;20072;-64
2023/09/28 12:39:23;;;;;;;8.10;2.65;;;;;;;;;;5060821;28;20051;-64
2023/09/28 12:41:49;;;;;;;6.97;1.80;;;;;;;;;;5051953;28;20052;-64
2023/09/28 12:44:17;;;;;;;6.72;2.10;;;;;;;;;;5051980;28;20059;-64
2023/09/28 12:46:44;;;;;;;12.35;2.80;;;;;;;;;;5054904;28;20041;-64
2023/09/28 12:49:10;;;;;;;8.07;2.95;;;;;;;;;;5052773;28;20090;-63
2023/09/28 12:51:36;;;;;;;4.65;1.50;;;;;;;;;;5054699;28;20087;-63
2023/09/28 12:54:02;;;;;;;4.75;1.77;;;;;;;;;;5048905;28;20409;-63
2023/09/28 12:56:29;;;;;;;6.55;2.25;;;;;;;;;;5048620;28;20056;-64
2023/09/28 12:58:55;;;;;;;7.45;3.00;;;;;;;;;;5047530;28;20571;-64
2023/09/28 13:01:22;;;;;;;7.75;2.60;;;;;;;;;;5047992;28;20041;-64
2023/09/28 13:03:51;;;;;;;6.28;2.15;;;;;;;;;;5060431;28;20056;-64
2023/09/28 13:06:17;;;;;;;7.82;2.63;;;;;;;;;;5049245;28;20049;-63
2023/09/28 13:08:43;;;;;;;8.70;3.30;;;;;;;;;;5053419;28;20044;-64
2023/09/28 13:11:10;;;;;;;4.53;2.17;;;;;;;;;;5046303;28;20037;-64
2023/09/28 13:13:39;;;;;;;8.90;2.67;;;;;;;;;;5044348;28;20575;-64
2023/09/28 13:16:05;;;;;;;5.75;2.28;;;;;;;;;;5041881;28;20053;-64
2023/09/28 13:18:33;;;;;;;7.90;2.63;;;;;;;;;;5043193;28;20155;-64
2023/09/28 13:21:00;;;;;;;8.55;2.67;;;;;;;;;;5046518;28;20045;-64
2023/09/28 13:23:26;;;;;;;6.47;2.45;;;;;;;;;;5049553;28;20040;-64
2023/09/28 13:25:52;;;;;;;9.60;2.90;;;;;;;;;;5044519;28;20045;-64
2023/09/28 13:28:18;;;;;;;5.85;2.17;;;;;;;;;;5046138;28;20464;-64
2023/09/28 13:30:47;;;;;;;7.80;2.92;;;;;;;;;;5047183;28;20068;-64
2023/09/28 13:33:14;;;;;;;3.55;1.48;;;;;;;;;;5046553;28;20033;-64
2023/09/28 13:35:41;;;;;;;5.57;2.30;;;;;;;;;;5046271;28;20413;-64
2023/09/28 13:38:08;;;;;;;9.00;2.35;;;;;;;;;;5045041;28;20056;-64
2023/09/28 13:40:34;;;;;;;8.60;2.70;;;;;;;;;;5046641;28;20041;-64
2023/09/28 13:43:04;;;;;;;7.18;2.35;;;;;;;;;;5046215;28;20115;-63
2023/09/28 13:45:30;;;;;;;6.50;2.53;;;;;;;;;;5048447;28;20387;-64
2023/09/28 13:47:58;;;;;;;4.90;1.63;;;;;;;;;;5048622;28;20036;-64
2023/09/28 13:50:27;;;;;;;6.82;1.98;;;;;;;;;;5047953;28;20056;-64
2023/09/28 13:52:54;;;;;;;12.50;2.95;;;;;;;;;;5050902;28;20055;-64
2023/09/28 13:55:20;;;;;;;7.20;2.00;;;;;;;;;;5043672;28;20267;-64
2023/09/28 13:57:50;;;;;;;7.03;2.28;;;;;;;;;;5040127;28;20128;-64
2023/09/28 14:00:22;;;;;;;6.05;2.20;;;;;;;;;;5048832;28;20048;-64
2023/09/28 14:02:48;;;;;;;5.20;2.00;;;;;;;;;;5043544;28;20087;-65
2023/09/28 14:05:14;;;;;;;5.43;1.90;;;;;;;;;;5046218;28;20098;-64
2023/09/28 14:07:40;;;;;;;7.32;2.15;;;;;;;;;;5045842;28;20045;-64
2023/09/28 14:10:07;;;;;;;4.30;1.83;;;;;;;;;;5046614;28;20119;-64
2023/09/28 14:12:33;;;;;;;6.30;2.35;;;;;;;;;;5045669;28;20555;-64
2023/09/28 14:14:59;;;;;;;7.47;2.25;;;;;;;;;;5048007;28;20049;-64
2023/09/28 14:17:25;;;;;;;7.07;1.92;;;;;;;;;;5050168;28;20045;-64
2023/09/28 14:19:51;;;;;;;4.18;1.75;;;;;;;;;;5051391;28;20047;-64
2023/09/28 14:22:17;;;;;;;9.45;1.88;;;;;;;;;;5043235;28;20071;-64
2023/09/28 14:24:43;;;;;;;4.97;2.05;;;;;;;;;;5043994;28;20044;-64
2023/09/28 14:27:10;;;;;;;8.85;2.67;;;;;;;;;;5045759;28;20056;-64
2023/09/28 14:29:37;;;;;;;7.57;2.15;;;;;;;;;;5041054;28;20064;-64
2023/09/28 14:32:04;;;;;;;4.15;1.40;;;;;;;;;;5041241;28;20052;-64
2023/09/28 14:34:30;;;;;;;2.88;1.15;;;;;;;;;;5042785;28;20099;-64
2023/09/28 14:36:56;;;;;;;4.00;1.38;;;;;;;;;;5051947;28;20076;-64
2023/09/28 14:39:22;;;;;;;3.03;1.50;;;;;;;;;;5050638;28;20485;-64
2023/09/28 14:41:48;;;;;;;3.33;1.30;;;;;;;;;;5049729;28;20281;-64